sensor_id;sensor_type;location;lat;lon;timestamp;P1;durP1;ratioP1;P2;durP2;ratioP2
19163;SDS011;9714;51.208;4.242;2022-10-31T00:00:44;22.63;;;9.50;;
19163;SDS011;9714;51.208;4.242;2022-10-31T00:03:12;19.27;;;9.50;;
19163;SDS011;9714;51.208;4.242;2022-10-31T00:05:41;21.93;;;10.27;;
19163;SDS011;9714;51.208;4.242;2022-10-31T00:08:09;22.53;;;10.37;;
19163;SDS011;9714;51.208;4.242;2022-10-31T00:10:37;22.90;;;9.73;;
19163;SDS011;9714;51.208;4.242;2022-10-31T00:13:04;21.73;;;9.83;;
19163;SDS011;9714;51.208;4.242;2022-10-31T00:15:32;21.73;;;10.50;;
19163;SDS011;9714;51.208;4.242;2022-10-31T00:17:59;20.37;;;10.57;;
19163;SDS011;9714;51.208;4.242;2022-10-31T00:20:26;25.07;;;10.30;;
19163;SDS011;9714;51.208;4.242;2022-10-31T00:22:56;21.73;;;11.27;;
19163;SDS011;9714;51.208;4.242;2022-10-31T00:25:24;22.83;;;10.60;;
19163;SDS011;9714;51.208;4.242;2022-10-31T00:27:51;22.83;;;11.03;;
19163;SDS011;9714;51.208;4.242;2022-10-31T00:30:18;25.27;;;11.07;;
19163;SDS011;9714;51.208;4.242;2022-10-31T00:32:45;26.97;;;11.93;;
19163;SDS011;9714;51.208;4.242;2022-10-31T00:35:12;24.33;;;11.20;;
19163;SDS011;9714;51.208;4.242;2022-10-31T00:37:39;26.67;;;11.63;;
19163;SDS011;9714;51.208;4.242;2022-10-31T00:40:08;24.13;;;11.80;;
19163;SDS011;9714;51.208;4.242;2022-10-31T00:42:36;21.47;;;11.27;;
19163;SDS011;9714;51.208;4.242;2022-10-31T00:45:03;26.00;;;11.97;;
19163;SDS011;9714;51.208;4.242;2022-10-31T00:47:30;21.00;;;11.57;;
19163;SDS011;9714;51.208;4.242;2022-10-31T00:49:58;24.77;;;11.97;;
19163;SDS011;9714;51.208;4.242;2022-10-31T00:52:25;22.90;;;11.83;;
19163;SDS011;9714;51.208;4.242;2022-10-31T00:54:52;31.73;;;12.03;;
19163;SDS011;9714;51.208;4.242;2022-10-31T00:57:20;22.20;;;12.43;;
19163;SDS011;9714;51.208;4.242;2022-10-31T00:59:47;22.17;;;11.87;;
19163;SDS011;9714;51.208;4.242;2022-10-31T01:02:14;28.23;;;12.47;;
19163;SDS011;9714;51.208;4.242;2022-10-31T01:04:41;26.97;;;13.33;;
19163;SDS011;9714;51.208;4.242;2022-10-31T01:07:08;23.47;;;11.47;;
19163;SDS011;9714;51.208;4.242;2022-10-31T01:09:36;27.37;;;12.20;;
19163;SDS011;9714;51.208;4.242;2022-10-31T01:12:03;26.30;;;12.17;;
19163;SDS011;9714;51.208;4.242;2022-10-31T01:14:31;26.60;;;12.40;;
19163;SDS011;9714;51.208;4.242;2022-10-31T01:16:58;26.20;;;12.50;;
19163;SDS011;9714;51.208;4.242;2022-10-31T01:19:25;21.83;;;12.23;;
19163;SDS011;9714;51.208;4.242;2022-10-31T01:21:53;27.50;;;13.80;;
19163;SDS011;9714;51.208;4.242;2022-10-31T01:24:20;25.40;;;12.60;;
19163;SDS011;9714;51.208;4.242;2022-10-31T01:26:47;27.10;;;12.60;;
19163;SDS011;9714;51.208;4.242;2022-10-31T01:29:15;26.37;;;12.90;;
19163;SDS011;9714;51.208;4.242;2022-10-31T01:31:43;25.43;;;13.37;;
19163;SDS011;9714;51.208;4.242;2022-10-31T01:34:11;28.97;;;12.13;;
19163;SDS011;9714;51.208;4.242;2022-10-31T01:36:40;21.27;;;11.90;;
19163;SDS011;9714;51.208;4.242;2022-10-31T01:39:09;30.20;;;12.93;;
19163;SDS011;9714;51.208;4.242;2022-10-31T01:41:38;26.23;;;11.80;;
19163;SDS011;9714;51.208;4.242;2022-10-31T01:47:11;32.37;;;13.00;;
19163;SDS011;9714;51.208;4.242;2022-10-31T01:49:42;28.73;;;13.30;;
19163;SDS011;9714;51.208;4.242;2022-10-31T01:52:12;24.87;;;11.30;;
19163;SDS011;9714;51.208;4.242;2022-10-31T01:54:44;27.50;;;12.67;;
19163;SDS011;9714;51.208;4.242;2022-10-31T01:57:15;21.97;;;12.60;;
19163;SDS011;9714;51.208;4.242;2022-10-31T01:59:46;25.37;;;12.73;;
19163;SDS011;9714;51.208;4.242;2022-10-31T02:02:17;31.47;;;13.40;;
19163;SDS011;9714;51.208;4.242;2022-10-31T02:04:45;24.97;;;12.10;;
19163;SDS011;9714;51.208;4.242;2022-10-31T02:07:16;26.23;;;13.27;;
19163;SDS011;9714;51.208;4.242;2022-10-31T02:09:49;27.23;;;12.93;;
19163;SDS011;9714;51.208;4.242;2022-10-31T02:12:17;27.93;;;12.77;;
19163;SDS011;9714;51.208;4.242;2022-10-31T02:14:44;23.20;;;11.93;;
19163;SDS011;9714;51.208;4.242;2022-10-31T02:17:12;26.20;;;12.10;;
19163;SDS011;9714;51.208;4.242;2022-10-31T02:19:43;21.73;;;11.23;;
19163;SDS011;9714;51.208;4.242;2022-10-31T02:22:19;24.83;;;12.03;;
19163;SDS011;9714;51.208;4.242;2022-10-31T02:25:02;24.07;;;11.97;;
19163;SDS011;9714;51.208;4.242;2022-10-31T02:27:44;19.37;;;11.40;;
19163;SDS011;9714;51.208;4.242;2022-10-31T02:30:35;22.73;;;11.73;;
19163;SDS011;9714;51.208;4.242;2022-10-31T02:33:10;20.03;;;11.13;;
19163;SDS011;9714;51.208;4.242;2022-10-31T02:35:50;24.30;;;12.33;;
19163;SDS011;9714;51.208;4.242;2022-10-31T02:38:30;24.23;;;11.60;;
19163;SDS011;9714;51.208;4.242;2022-10-31T02:41:06;23.67;;;11.77;;
19163;SDS011;9714;51.208;4.242;2022-10-31T02:43:44;24.70;;;12.17;;
19163;SDS011;9714;51.208;4.242;2022-10-31T02:46:22;23.60;;;11.13;;
19163;SDS011;9714;51.208;4.242;2022-10-31T02:48:54;23.70;;;12.30;;
19163;SDS011;9714;51.208;4.242;2022-10-31T02:51:26;29.80;;;12.00;;
19163;SDS011;9714;51.208;4.242;2022-10-31T02:53:54;29.47;;;12.13;;
19163;SDS011;9714;51.208;4.242;2022-10-31T02:56:21;22.43;;;11.47;;
19163;SDS011;9714;51.208;4.242;2022-10-31T02:58:48;23.23;;;11.97;;
19163;SDS011;9714;51.208;4.242;2022-10-31T03:04:42;24.43;;;12.00;;
19163;SDS011;9714;51.208;4.242;2022-10-31T03:07:20;22.37;;;11.60;;
19163;SDS011;9714;51.208;4.242;2022-10-31T03:09:55;26.13;;;11.70;;
19163;SDS011;9714;51.208;4.242;2022-10-31T03:12:34;21.90;;;12.20;;
19163;SDS011;9714;51.208;4.242;2022-10-31T03:15:07;25.20;;;12.30;;
19163;SDS011;9714;51.208;4.242;2022-10-31T03:17:43;25.63;;;12.27;;
19163;SDS011;9714;51.208;4.242;2022-10-31T03:20:24;23.40;;;11.83;;
19163;SDS011;9714;51.208;4.242;2022-10-31T03:22:57;20.97;;;11.83;;
19163;SDS011;9714;51.208;4.242;2022-10-31T03:25:26;28.40;;;12.27;;
19163;SDS011;9714;51.208;4.242;2022-10-31T03:27:57;25.67;;;12.53;;
19163;SDS011;9714;51.208;4.242;2022-10-31T03:30:27;24.50;;;12.30;;
19163;SDS011;9714;51.208;4.242;2022-10-31T03:32:55;22.57;;;11.17;;
19163;SDS011;9714;51.208;4.242;2022-10-31T03:35:26;27.03;;;12.07;;
19163;SDS011;9714;51.208;4.242;2022-10-31T03:37:54;21.70;;;12.60;;
19163;SDS011;9714;51.208;4.242;2022-10-31T03:40:24;25.20;;;12.17;;
19163;SDS011;9714;51.208;4.242;2022-10-31T03:42:54;26.20;;;11.13;;
19163;SDS011;9714;51.208;4.242;2022-10-31T03:45:27;27.37;;;11.50;;
19163;SDS011;9714;51.208;4.242;2022-10-31T03:47:56;20.47;;;10.80;;
19163;SDS011;9714;51.208;4.242;2022-10-31T03:50:28;23.90;;;11.60;;
19163;SDS011;9714;51.208;4.242;2022-10-31T03:53:16;22.83;;;11.47;;
19163;SDS011;9714;51.208;4.242;2022-10-31T03:55:49;23.33;;;11.40;;
19163;SDS011;9714;51.208;4.242;2022-10-31T03:58:19;26.93;;;11.43;;
19163;SDS011;9714;51.208;4.242;2022-10-31T04:00:49;24.97;;;12.27;;
19163;SDS011;9714;51.208;4.242;2022-10-31T04:03:19;22.83;;;12.00;;
19163;SDS011;9714;51.208;4.242;2022-10-31T04:05:53;28.43;;;12.40;;
19163;SDS011;9714;51.208;4.242;2022-10-31T04:08:24;24.60;;;12.17;;
19163;SDS011;9714;51.208;4.242;2022-10-31T04:10:56;20.60;;;11.63;;
19163;SDS011;9714;51.208;4.242;2022-10-31T04:13:26;22.43;;;11.53;;
19163;SDS011;9714;51.208;4.242;2022-10-31T04:15:56;20.53;;;11.20;;
19163;SDS011;9714;51.208;4.242;2022-10-31T04:18:24;20.50;;;11.77;;
19163;SDS011;9714;51.208;4.242;2022-10-31T04:21:00;22.73;;;10.97;;
19163;SDS011;9714;51.208;4.242;2022-10-31T04:23:29;22.63;;;10.93;;
19163;SDS011;9714;51.208;4.242;2022-10-31T04:25:56;24.07;;;11.70;;
19163;SDS011;9714;51.208;4.242;2022-10-31T04:28:23;19.47;;;10.30;;
19163;SDS011;9714;51.208;4.242;2022-10-31T04:30:50;23.57;;;11.40;;
19163;SDS011;9714;51.208;4.242;2022-10-31T04:33:18;22.90;;;11.10;;
19163;SDS011;9714;51.208;4.242;2022-10-31T04:35:45;20.77;;;10.97;;
19163;SDS011;9714;51.208;4.242;2022-10-31T04:38:14;19.53;;;10.40;;
19163;SDS011;9714;51.208;4.242;2022-10-31T04:40:41;27.83;;;11.80;;
19163;SDS011;9714;51.208;4.242;2022-10-31T04:43:08;19.30;;;10.53;;
19163;SDS011;9714;51.208;4.242;2022-10-31T04:45:35;22.50;;;10.30;;
19163;SDS011;9714;51.208;4.242;2022-10-31T04:48:03;22.83;;;10.67;;
19163;SDS011;9714;51.208;4.242;2022-10-31T04:50:30;22.53;;;11.83;;
19163;SDS011;9714;51.208;4.242;2022-10-31T04:52:57;29.73;;;13.37;;
19163;SDS011;9714;51.208;4.242;2022-10-31T04:55:25;23.43;;;12.97;;
19163;SDS011;9714;51.208;4.242;2022-10-31T04:57:52;25.70;;;11.70;;
19163;SDS011;9714;51.208;4.242;2022-10-31T05:00:20;23.90;;;13.63;;
19163;SDS011;9714;51.208;4.242;2022-10-31T05:02:48;27.27;;;14.97;;
19163;SDS011;9714;51.208;4.242;2022-10-31T05:05:16;25.97;;;12.50;;
19163;SDS011;9714;51.208;4.242;2022-10-31T05:07:45;23.73;;;12.50;;
19163;SDS011;9714;51.208;4.242;2022-10-31T05:10:14;28.27;;;13.03;;
19163;SDS011;9714;51.208;4.242;2022-10-31T05:12:46;37.23;;;19.27;;
19163;SDS011;9714;51.208;4.242;2022-10-31T05:15:15;26.47;;;14.03;;
19163;SDS011;9714;51.208;4.242;2022-10-31T05:17:43;27.47;;;14.77;;
19163;SDS011;9714;51.208;4.242;2022-10-31T05:20:10;29.73;;;15.93;;
19163;SDS011;9714;51.208;4.242;2022-10-31T05:22:41;32.47;;;13.93;;
19163;SDS011;9714;51.208;4.242;2022-10-31T05:25:09;26.40;;;14.37;;
19163;SDS011;9714;51.208;4.242;2022-10-31T05:27:38;32.50;;;14.57;;
19163;SDS011;9714;51.208;4.242;2022-10-31T05:30:07;27.47;;;15.20;;
19163;SDS011;9714;51.208;4.242;2022-10-31T05:32:38;32.03;;;15.03;;
19163;SDS011;9714;51.208;4.242;2022-10-31T05:35:06;27.87;;;13.87;;
19163;SDS011;9714;51.208;4.242;2022-10-31T05:37:34;29.43;;;13.73;;
19163;SDS011;9714;51.208;4.242;2022-10-31T05:40:01;26.70;;;14.37;;
19163;SDS011;9714;51.208;4.242;2022-10-31T05:42:28;28.10;;;14.53;;
19163;SDS011;9714;51.208;4.242;2022-10-31T05:44:55;29.43;;;13.83;;
19163;SDS011;9714;51.208;4.242;2022-10-31T05:47:23;30.67;;;14.80;;
19163;SDS011;9714;51.208;4.242;2022-10-31T05:49:51;33.23;;;14.73;;
19163;SDS011;9714;51.208;4.242;2022-10-31T05:52:18;34.47;;;15.77;;
19163;SDS011;9714;51.208;4.242;2022-10-31T05:54:46;29.80;;;15.13;;
19163;SDS011;9714;51.208;4.242;2022-10-31T05:57:14;31.90;;;13.20;;
19163;SDS011;9714;51.208;4.242;2022-10-31T05:59:41;25.03;;;13.70;;
19163;SDS011;9714;51.208;4.242;2022-10-31T06:02:08;28.37;;;13.60;;
19163;SDS011;9714;51.208;4.242;2022-10-31T06:04:36;27.37;;;13.07;;
19163;SDS011;9714;51.208;4.242;2022-10-31T06:07:03;23.60;;;12.53;;
19163;SDS011;9714;51.208;4.242;2022-10-31T06:09:30;25.00;;;12.47;;
19163;SDS011;9714;51.208;4.242;2022-10-31T06:11:57;24.60;;;12.83;;
19163;SDS011;9714;51.208;4.242;2022-10-31T06:14:25;22.77;;;10.83;;
19163;SDS011;9714;51.208;4.242;2022-10-31T06:16:53;22.67;;;12.33;;
19163;SDS011;9714;51.208;4.242;2022-10-31T06:19:20;22.67;;;12.63;;
19163;SDS011;9714;51.208;4.242;2022-10-31T06:21:49;20.93;;;12.70;;
19163;SDS011;9714;51.208;4.242;2022-10-31T06:24:17;22.43;;;11.47;;
19163;SDS011;9714;51.208;4.242;2022-10-31T06:26:43;25.03;;;11.50;;
19163;SDS011;9714;51.208;4.242;2022-10-31T06:29:10;22.67;;;11.37;;
19163;SDS011;9714;51.208;4.242;2022-10-31T06:31:37;26.87;;;11.50;;
19163;SDS011;9714;51.208;4.242;2022-10-31T06:34:05;20.00;;;11.27;;
19163;SDS011;9714;51.208;4.242;2022-10-31T06:36:32;25.30;;;12.03;;
19163;SDS011;9714;51.208;4.242;2022-10-31T06:39:02;22.07;;;11.93;;
19163;SDS011;9714;51.208;4.242;2022-10-31T06:41:29;25.13;;;12.07;;
19163;SDS011;9714;51.208;4.242;2022-10-31T06:43:55;26.37;;;12.07;;
19163;SDS011;9714;51.208;4.242;2022-10-31T06:46:22;22.27;;;11.33;;
19163;SDS011;9714;51.208;4.242;2022-10-31T06:48:50;21.20;;;11.70;;
19163;SDS011;9714;51.208;4.242;2022-10-31T06:51:18;25.10;;;12.63;;
19163;SDS011;9714;51.208;4.242;2022-10-31T06:53:45;25.87;;;12.87;;
19163;SDS011;9714;51.208;4.242;2022-10-31T06:56:15;21.83;;;12.50;;
19163;SDS011;9714;51.208;4.242;2022-10-31T06:58:41;27.70;;;12.97;;
19163;SDS011;9714;51.208;4.242;2022-10-31T07:01:08;24.83;;;13.47;;
19163;SDS011;9714;51.208;4.242;2022-10-31T07:03:35;25.63;;;13.70;;
19163;SDS011;9714;51.208;4.242;2022-10-31T07:06:03;36.60;;;14.17;;
19163;SDS011;9714;51.208;4.242;2022-10-31T07:08:30;22.67;;;13.17;;
19163;SDS011;9714;51.208;4.242;2022-10-31T07:10:57;33.23;;;14.60;;
19163;SDS011;9714;51.208;4.242;2022-10-31T07:13:26;29.17;;;14.60;;
19163;SDS011;9714;51.208;4.242;2022-10-31T07:15:54;28.27;;;16.40;;
19163;SDS011;9714;51.208;4.242;2022-10-31T07:18:26;30.00;;;15.63;;
19163;SDS011;9714;51.208;4.242;2022-10-31T07:20:53;32.33;;;15.23;;
19163;SDS011;9714;51.208;4.242;2022-10-31T07:23:21;27.63;;;15.13;;
19163;SDS011;9714;51.208;4.242;2022-10-31T07:25:53;32.67;;;15.27;;
19163;SDS011;9714;51.208;4.242;2022-10-31T07:28:21;27.47;;;15.17;;
19163;SDS011;9714;51.208;4.242;2022-10-31T07:30:50;26.43;;;14.00;;
19163;SDS011;9714;51.208;4.242;2022-10-31T07:33:18;28.07;;;13.73;;
19163;SDS011;9714;51.208;4.242;2022-10-31T07:35:45;28.33;;;15.03;;
19163;SDS011;9714;51.208;4.242;2022-10-31T07:38:12;25.40;;;13.47;;
19163;SDS011;9714;51.208;4.242;2022-10-31T07:40:41;31.90;;;14.40;;
19163;SDS011;9714;51.208;4.242;2022-10-31T07:43:08;33.33;;;14.37;;
19163;SDS011;9714;51.208;4.242;2022-10-31T07:45:37;30.83;;;13.67;;
19163;SDS011;9714;51.208;4.242;2022-10-31T07:48:06;27.57;;;13.37;;
19163;SDS011;9714;51.208;4.242;2022-10-31T07:50:33;30.07;;;12.90;;
19163;SDS011;9714;51.208;4.242;2022-10-31T07:53:00;26.40;;;14.00;;
19163;SDS011;9714;51.208;4.242;2022-10-31T07:55:28;27.03;;;12.77;;
19163;SDS011;9714;51.208;4.242;2022-10-31T07:57:56;27.30;;;13.67;;
19163;SDS011;9714;51.208;4.242;2022-10-31T08:00:26;22.10;;;12.80;;
19163;SDS011;9714;51.208;4.242;2022-10-31T08:02:56;27.03;;;12.87;;
19163;SDS011;9714;51.208;4.242;2022-10-31T08:05:25;28.30;;;12.27;;
19163;SDS011;9714;51.208;4.242;2022-10-31T08:07:52;29.77;;;13.87;;
19163;SDS011;9714;51.208;4.242;2022-10-31T08:10:19;28.27;;;13.13;;
19163;SDS011;9714;51.208;4.242;2022-10-31T08:12:47;30.80;;;14.20;;
19163;SDS011;9714;51.208;4.242;2022-10-31T08:15:20;24.00;;;13.50;;
19163;SDS011;9714;51.208;4.242;2022-10-31T08:17:47;27.83;;;14.43;;
19163;SDS011;9714;51.208;4.242;2022-10-31T08:20:14;26.50;;;14.27;;
19163;SDS011;9714;51.208;4.242;2022-10-31T08:22:42;30.50;;;14.70;;
19163;SDS011;9714;51.208;4.242;2022-10-31T08:25:09;34.67;;;13.93;;
19163;SDS011;9714;51.208;4.242;2022-10-31T08:27:36;33.40;;;13.97;;
19163;SDS011;9714;51.208;4.242;2022-10-31T08:30:03;25.00;;;13.50;;
19163;SDS011;9714;51.208;4.242;2022-10-31T08:32:33;31.10;;;13.80;;
19163;SDS011;9714;51.208;4.242;2022-10-31T08:35:00;32.13;;;14.30;;
19163;SDS011;9714;51.208;4.242;2022-10-31T08:37:27;25.23;;;14.00;;
19163;SDS011;9714;51.208;4.242;2022-10-31T08:39:55;30.97;;;15.27;;
19163;SDS011;9714;51.208;4.242;2022-10-31T08:42:22;34.03;;;15.50;;
19163;SDS011;9714;51.208;4.242;2022-10-31T08:44:49;28.57;;;14.27;;
19163;SDS011;9714;51.208;4.242;2022-10-31T08:47:16;32.53;;;16.07;;
19163;SDS011;9714;51.208;4.242;2022-10-31T08:49:43;44.23;;;15.40;;
19163;SDS011;9714;51.208;4.242;2022-10-31T08:52:10;28.77;;;15.33;;
19163;SDS011;9714;51.208;4.242;2022-10-31T08:54:37;34.83;;;16.13;;
19163;SDS011;9714;51.208;4.242;2022-10-31T08:57:06;28.87;;;15.50;;
19163;SDS011;9714;51.208;4.242;2022-10-31T08:59:33;32.33;;;15.10;;
19163;SDS011;9714;51.208;4.242;2022-10-31T09:01:59;35.57;;;14.63;;
19163;SDS011;9714;51.208;4.242;2022-10-31T09:04:26;28.70;;;14.37;;
19163;SDS011;9714;51.208;4.242;2022-10-31T09:06:53;27.30;;;13.80;;
19163;SDS011;9714;51.208;4.242;2022-10-31T09:09:20;30.03;;;14.73;;
19163;SDS011;9714;51.208;4.242;2022-10-31T09:11:47;35.77;;;15.50;;
19163;SDS011;9714;51.208;4.242;2022-10-31T09:14:15;28.70;;;14.37;;
19163;SDS011;9714;51.208;4.242;2022-10-31T09:16:42;30.00;;;15.63;;
19163;SDS011;9714;51.208;4.242;2022-10-31T09:19:09;26.33;;;14.37;;
19163;SDS011;9714;51.208;4.242;2022-10-31T09:21:36;26.83;;;14.60;;
19163;SDS011;9714;51.208;4.242;2022-10-31T09:24:04;25.27;;;14.30;;
19163;SDS011;9714;51.208;4.242;2022-10-31T09:26:32;27.00;;;14.53;;
19163;SDS011;9714;51.208;4.242;2022-10-31T09:28:59;27.77;;;14.37;;
19163;SDS011;9714;51.208;4.242;2022-10-31T09:31:28;23.57;;;14.47;;
19163;SDS011;9714;51.208;4.242;2022-10-31T09:33:55;29.37;;;14.27;;
19163;SDS011;9714;51.208;4.242;2022-10-31T09:36:22;29.90;;;14.00;;
19163;SDS011;9714;51.208;4.242;2022-10-31T09:38:50;28.33;;;14.60;;
19163;SDS011;9714;51.208;4.242;2022-10-31T09:41:19;25.33;;;13.73;;
19163;SDS011;9714;51.208;4.242;2022-10-31T09:43:54;24.97;;;13.50;;
19163;SDS011;9714;51.208;4.242;2022-10-31T09:46:26;30.13;;;13.93;;
19163;SDS011;9714;51.208;4.242;2022-10-31T09:49:03;38.47;;;15.57;;
19163;SDS011;9714;51.208;4.242;2022-10-31T09:51:49;43.27;;;17.70;;
19163;SDS011;9714;51.208;4.242;2022-10-31T09:54:22;31.67;;;14.07;;
19163;SDS011;9714;51.208;4.242;2022-10-31T09:56:55;27.23;;;13.77;;
19163;SDS011;9714;51.208;4.242;2022-10-31T09:59:26;30.70;;;14.23;;
19163;SDS011;9714;51.208;4.242;2022-10-31T10:01:58;27.53;;;15.07;;
19163;SDS011;9714;51.208;4.242;2022-10-31T10:04:34;27.57;;;13.40;;
19163;SDS011;9714;51.208;4.242;2022-10-31T10:07:09;28.43;;;13.73;;
19163;SDS011;9714;51.208;4.242;2022-10-31T10:09:40;32.10;;;14.90;;
19163;SDS011;9714;51.208;4.242;2022-10-31T10:12:09;24.20;;;13.83;;
19163;SDS011;9714;51.208;4.242;2022-10-31T10:14:50;27.03;;;14.30;;
19163;SDS011;9714;51.208;4.242;2022-10-31T10:17:31;32.53;;;14.73;;
19163;SDS011;9714;51.208;4.242;2022-10-31T10:22:55;31.60;;;16.43;;
19163;SDS011;9714;51.208;4.242;2022-10-31T10:25:33;26.93;;;16.80;;
19163;SDS011;9714;51.208;4.242;2022-10-31T10:28:08;33.83;;;18.67;;
19163;SDS011;9714;51.208;4.242;2022-10-31T10:30:41;36.53;;;18.07;;
19163;SDS011;9714;51.208;4.242;2022-10-31T10:33:14;31.50;;;18.37;;
19163;SDS011;9714;51.208;4.242;2022-10-31T10:35:46;35.60;;;19.33;;
19163;SDS011;9714;51.208;4.242;2022-10-31T10:38:17;35.03;;;20.03;;
19163;SDS011;9714;51.208;4.242;2022-10-31T10:40:50;32.07;;;18.53;;
19163;SDS011;9714;51.208;4.242;2022-10-31T10:43:21;38.50;;;19.33;;
19163;SDS011;9714;51.208;4.242;2022-10-31T10:45:53;30.30;;;17.50;;
19163;SDS011;9714;51.208;4.242;2022-10-31T10:48:49;28.50;;;17.43;;
19163;SDS011;9714;51.208;4.242;2022-10-31T10:51:22;27.03;;;16.57;;
19163;SDS011;9714;51.208;4.242;2022-10-31T10:54:00;25.40;;;15.03;;
19163;SDS011;9714;51.208;4.242;2022-10-31T10:56:44;24.83;;;13.63;;
19163;SDS011;9714;51.208;4.242;2022-10-31T10:59:23;25.40;;;13.00;;
19163;SDS011;9714;51.208;4.242;2022-10-31T11:01:50;26.83;;;13.77;;
19163;SDS011;9714;51.208;4.242;2022-10-31T11:04:25;31.50;;;16.07;;
19163;SDS011;9714;51.208;4.242;2022-10-31T11:07:02;31.50;;;15.63;;
19163;SDS011;9714;51.208;4.242;2022-10-31T11:09:32;28.97;;;16.33;;
19163;SDS011;9714;51.208;4.242;2022-10-31T11:12:00;26.27;;;14.20;;
19163;SDS011;9714;51.208;4.242;2022-10-31T11:14:36;26.80;;;13.70;;
19163;SDS011;9714;51.208;4.242;2022-10-31T11:17:10;32.00;;;14.20;;
19163;SDS011;9714;51.208;4.242;2022-10-31T11:19:45;27.57;;;15.07;;
19163;SDS011;9714;51.208;4.242;2022-10-31T11:22:14;30.43;;;15.67;;
19163;SDS011;9714;51.208;4.242;2022-10-31T11:24:43;37.27;;;16.87;;
19163;SDS011;9714;51.208;4.242;2022-10-31T11:27:14;31.50;;;15.63;;
19163;SDS011;9714;51.208;4.242;2022-10-31T11:29:45;31.53;;;17.93;;
19163;SDS011;9714;51.208;4.242;2022-10-31T11:32:16;31.23;;;16.60;;
19163;SDS011;9714;51.208;4.242;2022-10-31T11:34:48;32.93;;;17.00;;
19163;SDS011;9714;51.208;4.242;2022-10-31T11:37:20;31.67;;;15.93;;
19163;SDS011;9714;51.208;4.242;2022-10-31T11:39:51;29.10;;;17.10;;
19163;SDS011;9714;51.208;4.242;2022-10-31T11:42:20;30.13;;;16.10;;
19163;SDS011;9714;51.208;4.242;2022-10-31T11:44:51;38.70;;;18.37;;
19163;SDS011;9714;51.208;4.242;2022-10-31T11:47:22;29.67;;;17.20;;
19163;SDS011;9714;51.208;4.242;2022-10-31T11:49:53;37.30;;;18.90;;
19163;SDS011;9714;51.208;4.242;2022-10-31T11:52:23;33.57;;;18.13;;
19163;SDS011;9714;51.208;4.242;2022-10-31T11:54:53;36.17;;;18.70;;
19163;SDS011;9714;51.208;4.242;2022-10-31T11:57:25;37.30;;;19.10;;
19163;SDS011;9714;51.208;4.242;2022-10-31T11:59:55;33.10;;;17.07;;
19163;SDS011;9714;51.208;4.242;2022-10-31T12:02:24;35.90;;;18.83;;
19163;SDS011;9714;51.208;4.242;2022-10-31T12:04:58;31.63;;;17.90;;
19163;SDS011;9714;51.208;4.242;2022-10-31T12:07:31;32.67;;;18.20;;
19163;SDS011;9714;51.208;4.242;2022-10-31T12:09:58;34.47;;;19.20;;
19163;SDS011;9714;51.208;4.242;2022-10-31T12:12:36;35.73;;;18.70;;
19163;SDS011;9714;51.208;4.242;2022-10-31T12:18:11;39.00;;;19.87;;
19163;SDS011;9714;51.208;4.242;2022-10-31T12:21:03;37.80;;;19.30;;
19163;SDS011;9714;51.208;4.242;2022-10-31T12:23:42;32.20;;;17.90;;
19163;SDS011;9714;51.208;4.242;2022-10-31T12:26:20;37.90;;;18.90;;
19163;SDS011;9714;51.208;4.242;2022-10-31T12:28:57;36.33;;;18.90;;
19163;SDS011;9714;51.208;4.242;2022-10-31T12:31:34;34.37;;;18.90;;
19163;SDS011;9714;51.208;4.242;2022-10-31T12:34:21;32.23;;;18.00;;
19163;SDS011;9714;51.208;4.242;2022-10-31T12:37:10;30.80;;;17.63;;
19163;SDS011;9714;51.208;4.242;2022-10-31T12:39:49;35.17;;;18.40;;
19163;SDS011;9714;51.208;4.242;2022-10-31T12:42:33;38.20;;;19.90;;
19163;SDS011;9714;51.208;4.242;2022-10-31T12:45:27;35.63;;;18.20;;
19163;SDS011;9714;51.208;4.242;2022-10-31T12:48:06;35.17;;;18.10;;
19163;SDS011;9714;51.208;4.242;2022-10-31T12:50:56;37.73;;;18.20;;
19163;SDS011;9714;51.208;4.242;2022-10-31T12:53:35;34.23;;;18.17;;
19163;SDS011;9714;51.208;4.242;2022-10-31T12:56:17;36.93;;;18.57;;
19163;SDS011;9714;51.208;4.242;2022-10-31T12:58:54;34.93;;;18.53;;
19163;SDS011;9714;51.208;4.242;2022-10-31T13:01:27;38.43;;;19.90;;
19163;SDS011;9714;51.208;4.242;2022-10-31T13:03:58;33.93;;;17.40;;
19163;SDS011;9714;51.208;4.242;2022-10-31T13:06:30;33.07;;;18.50;;
19163;SDS011;9714;51.208;4.242;2022-10-31T13:09:07;35.03;;;18.90;;
19163;SDS011;9714;51.208;4.242;2022-10-31T13:11:38;38.87;;;19.70;;
19163;SDS011;9714;51.208;4.242;2022-10-31T13:14:10;34.20;;;18.30;;
19163;SDS011;9714;51.208;4.242;2022-10-31T13:16:42;42.93;;;19.53;;
19163;SDS011;9714;51.208;4.242;2022-10-31T13:19:13;35.47;;;17.90;;
19163;SDS011;9714;51.208;4.242;2022-10-31T13:21:45;35.53;;;18.70;;
19163;SDS011;9714;51.208;4.242;2022-10-31T13:24:22;35.53;;;19.20;;
19163;SDS011;9714;51.208;4.242;2022-10-31T13:26:55;39.50;;;19.87;;
19163;SDS011;9714;51.208;4.242;2022-10-31T13:29:25;33.67;;;18.73;;
19163;SDS011;9714;51.208;4.242;2022-10-31T13:31:56;36.93;;;18.97;;
19163;SDS011;9714;51.208;4.242;2022-10-31T13:34:25;41.20;;;19.80;;
19163;SDS011;9714;51.208;4.242;2022-10-31T13:36:59;35.53;;;19.83;;
19163;SDS011;9714;51.208;4.242;2022-10-31T13:39:36;39.47;;;20.07;;
19163;SDS011;9714;51.208;4.242;2022-10-31T13:42:14;45.67;;;21.73;;
19163;SDS011;9714;51.208;4.242;2022-10-31T13:44:45;35.90;;;19.70;;
19163;SDS011;9714;51.208;4.242;2022-10-31T13:47:22;44.42;;;19.77;;
19163;SDS011;9714;51.208;4.242;2022-10-31T13:49:51;33.15;;;19.13;;
19163;SDS011;9714;51.208;4.242;2022-10-31T13:52:29;34.42;;;19.08;;
19163;SDS011;9714;51.208;4.242;2022-10-31T13:54:57;36.95;;;19.33;;
19163;SDS011;9714;51.208;4.242;2022-10-31T13:57:31;38.67;;;18.83;;
19163;SDS011;9714;51.208;4.242;2022-10-31T14:00:05;40.00;;;18.02;;
19163;SDS011;9714;51.208;4.242;2022-10-31T14:02:44;35.22;;;17.60;;
19163;SDS011;9714;51.208;4.242;2022-10-31T14:05:19;29.58;;;17.05;;
19163;SDS011;9714;51.208;4.242;2022-10-31T14:07:51;30.95;;;15.63;;
19163;SDS011;9714;51.208;4.242;2022-10-31T14:10:22;34.65;;;16.55;;
19163;SDS011;9714;51.208;4.242;2022-10-31T14:12:53;29.63;;;16.77;;
19163;SDS011;9714;51.208;4.242;2022-10-31T14:15:29;37.83;;;16.40;;
19163;SDS011;9714;51.208;4.242;2022-10-31T14:17:57;40.15;;;16.52;;
19163;SDS011;9714;51.208;4.242;2022-10-31T14:20:31;45.70;;;18.00;;
19163;SDS011;9714;51.208;4.242;2022-10-31T14:23:10;29.50;;;16.20;;
19163;SDS011;9714;51.208;4.242;2022-10-31T14:25:40;30.33;;;15.15;;
19163;SDS011;9714;51.208;4.242;2022-10-31T14:28:18;30.63;;;16.92;;
19163;SDS011;9714;51.208;4.242;2022-10-31T14:30:51;39.97;;;17.52;;
19163;SDS011;9714;51.208;4.242;2022-10-31T14:33:20;31.08;;;16.15;;
19163;SDS011;9714;51.208;4.242;2022-10-31T14:35:51;34.75;;;14.82;;
19163;SDS011;9714;51.208;4.242;2022-10-31T14:38:33;33.25;;;14.63;;
19163;SDS011;9714;51.208;4.242;2022-10-31T14:41:17;30.85;;;15.05;;
19163;SDS011;9714;51.208;4.242;2022-10-31T14:47:27;33.60;;;14.10;;
19163;SDS011;9714;51.208;4.242;2022-10-31T14:50:10;24.92;;;12.90;;
19163;SDS011;9714;51.208;4.242;2022-10-31T14:52:48;30.40;;;12.77;;
19163;SDS011;9714;51.208;4.242;2022-10-31T14:55:18;27.63;;;11.98;;
19163;SDS011;9714;51.208;4.242;2022-10-31T14:57:49;25.55;;;11.07;;
19163;SDS011;9714;51.208;4.242;2022-10-31T15:00:20;26.70;;;10.07;;
19163;SDS011;9714;51.208;4.242;2022-10-31T15:02:51;25.77;;;9.48;;
19163;SDS011;9714;51.208;4.242;2022-10-31T15:05:29;18.77;;;8.45;;
19163;SDS011;9714;51.208;4.242;2022-10-31T15:07:58;21.03;;;8.67;;
19163;SDS011;9714;51.208;4.242;2022-10-31T15:10:27;27.58;;;9.40;;
19163;SDS011;9714;51.208;4.242;2022-10-31T15:13:09;22.07;;;9.73;;